Candiac, Canada
Current Conditions -  °F | °C
As of 9:11 PM on Saturday 25 Oct 2014 (Local Time) from CYHU Reporting Station
Broken Clouds Broken Clouds  
Wind Chill: 52°   Ceiling: 2100
Heat Index: 52°   Visibility: 9mi
Dew Point: 48°   Wind: 6mph
Humidity: 88%   Direction: 250°WSW
Pressure: 29.43"   Gusts: NA
Location:  45.38°N, 73.52°W
Report Text: CYHU 260111Z AUTO 25005KT 9SM SCT014 BKN021 BKN070 11/09 A2943 RMK SLP965 DENSITY ALT 100FT
Loading
Personal Weather Stations






























Interactive Weather Map
Tropical Storm Tracking
New forecast layout! Learn more

10-Day Weather Forecast

Advertisements
Track Severe Weather on mobile